createdAt,value
2022-10-12T00:00:07.070Z,17.08
2022-10-12T00:02:34.711Z,17.35
2022-10-12T00:04:57.264Z,17.80
2022-10-12T00:07:19.919Z,17.85
2022-10-12T00:09:42.502Z,17.45
2022-10-12T00:12:05.603Z,16.92
2022-10-12T00:14:28.236Z,17.45
2022-10-12T00:16:50.895Z,17.02
2022-10-12T00:19:14.099Z,17.35
2022-10-12T00:21:38.815Z,17.45
2022-10-12T00:24:01.895Z,16.75
2022-10-12T00:26:25.421Z,16.05
2022-10-12T00:28:48.874Z,16.25
2022-10-12T00:31:19.849Z,16.45
2022-10-12T00:33:42.692Z,17.13
2022-10-12T00:36:34.197Z,17.10
2022-10-12T00:38:57.149Z,16.52
2022-10-12T00:41:22.923Z,18.00
2022-10-12T00:43:47.888Z,17.08
2022-10-12T00:46:37.559Z,17.23
2022-10-12T00:49:10.446Z,15.82
2022-10-12T00:51:33.785Z,16.10
2022-10-12T00:54:05.176Z,16.90
2022-10-12T00:56:32.316Z,16.75
2022-10-12T00:58:57.087Z,16.33
2022-10-12T01:01:19.978Z,15.70
2022-10-12T01:03:43.043Z,14.50
2022-10-12T01:06:06.928Z,13.70
2022-10-12T01:08:30.649Z,14.63
2022-10-12T01:10:53.709Z,15.23
2022-10-12T01:13:16.654Z,15.23
2022-10-12T01:16:17.265Z,14.95
2022-10-12T01:19:14.312Z,14.23
2022-10-12T01:21:44.404Z,14.55
2022-10-12T01:24:33.152Z,16.00
2022-10-12T01:27:08.079Z,15.70
2022-10-12T01:29:53.215Z,16.25
2022-10-12T01:32:27.960Z,16.05
2022-10-12T01:35:02.230Z,16.55
2022-10-12T01:37:31.581Z,15.38
2022-10-12T01:39:57.259Z,16.33
2022-10-12T01:42:37.139Z,16.13
2022-10-12T01:45:12.180Z,17.15
2022-10-12T01:47:38.003Z,16.60
2022-10-12T01:50:03.137Z,16.95
2022-10-12T01:52:32.123Z,15.88
2022-10-12T01:55:25.455Z,16.13
2022-10-12T01:58:16.567Z,17.10
2022-10-12T02:00:52.685Z,16.10
2022-10-12T02:03:15.266Z,16.98
2022-10-12T02:05:37.735Z,16.52
2022-10-12T02:08:13.060Z,16.13
2022-10-12T02:10:40.908Z,16.42
2022-10-12T02:13:07.445Z,16.25
2022-10-12T02:15:31.952Z,17.13
2022-10-12T02:17:56.775Z,16.15
2022-10-12T02:20:24.039Z,16.58
2022-10-12T02:22:57.639Z,16.75
2022-10-12T02:25:23.886Z,16.67
2022-10-12T02:27:53.162Z,15.45
2022-10-12T02:30:19.240Z,17.17
2022-10-12T02:33:03.400Z,15.95
2022-10-12T02:35:34.997Z,16.63
2022-10-12T02:38:03.484Z,17.00
2022-10-12T02:40:26.090Z,16.70
2022-10-12T02:43:09.761Z,16.40
2022-10-12T02:45:34.560Z,16.60
2022-10-12T02:47:58.784Z,16.73
2022-10-12T02:50:23.380Z,16.65
2022-10-12T02:52:46.912Z,17.20
2022-10-12T02:55:09.521Z,16.73
2022-10-12T02:57:32.017Z,16.85
2022-10-12T02:59:54.743Z,17.58
2022-10-12T03:02:17.256Z,17.02
2022-10-12T03:04:39.860Z,17.75
2022-10-12T03:07:02.496Z,17.17
2022-10-12T03:09:25.192Z,17.17
2022-10-12T03:11:47.602Z,18.27
2022-10-12T03:14:15.051Z,18.05
2022-10-12T03:16:37.626Z,18.13
2022-10-12T03:19:00.310Z,17.67
2022-10-12T03:21:22.976Z,17.75
2022-10-12T03:23:47.007Z,17.60
2022-10-12T03:26:10.190Z,18.02
2022-10-12T03:28:33.628Z,16.67
2022-10-12T03:30:56.466Z,18.13
2022-10-12T03:33:19.512Z,17.42
2022-10-12T03:35:45.468Z,18.23
2022-10-12T03:38:08.580Z,18.05
2022-10-12T03:40:31.452Z,18.05
2022-10-12T03:42:54.068Z,18.15
2022-10-12T03:45:16.764Z,18.65
2022-10-12T03:47:39.897Z,17.67
2022-10-12T03:50:03.602Z,18.60
2022-10-12T03:52:28.039Z,18.50
2022-10-12T03:54:51.255Z,18.40
2022-10-12T03:57:13.918Z,18.15
2022-10-12T03:59:36.739Z,18.50
2022-10-12T04:01:59.343Z,18.25
2022-10-12T04:04:21.792Z,17.70
2022-10-12T04:06:44.651Z,17.95
2022-10-12T04:09:07.266Z,18.30
2022-10-12T04:11:29.832Z,18.02
2022-10-12T04:13:54.988Z,18.20
2022-10-12T04:16:18.755Z,17.92
2022-10-12T04:18:41.307Z,18.35
2022-10-12T04:21:15.972Z,18.15
2022-10-12T04:23:38.547Z,18.13
2022-10-12T04:26:01.109Z,18.73
2022-10-12T04:28:23.870Z,17.73
2022-10-12T04:30:46.840Z,20.02
2022-10-12T04:33:09.525Z,18.48
2022-10-12T04:35:32.396Z,17.10
2022-10-12T04:37:54.844Z,18.90
2022-10-12T04:40:17.427Z,17.95
2022-10-12T04:42:39.903Z,17.42
2022-10-12T04:45:02.376Z,18.10
2022-10-12T04:47:25.421Z,17.48
2022-10-12T04:49:48.005Z,19.17
2022-10-12T04:52:10.650Z,18.65
2022-10-12T04:54:33.666Z,18.45
2022-10-12T04:56:56.242Z,18.42
2022-10-12T04:59:18.880Z,19.33
2022-10-12T05:01:42.194Z,19.73
2022-10-12T05:04:04.953Z,19.60
2022-10-12T05:06:27.834Z,19.45
2022-10-12T05:08:51.959Z,18.58
2022-10-12T05:11:23.464Z,18.55
2022-10-12T05:13:49.179Z,19.52
2022-10-12T05:16:14.578Z,19.35
2022-10-12T05:18:37.183Z,25.50
2022-10-12T05:20:59.894Z,23.48
2022-10-12T05:23:22.568Z,22.95
2022-10-12T05:25:45.190Z,20.88
2022-10-12T05:28:07.911Z,18.55
2022-10-12T05:30:30.940Z,17.83
2022-10-12T05:32:53.831Z,18.20
2022-10-12T05:35:16.497Z,18.65
2022-10-12T05:37:39.514Z,18.50
2022-10-12T05:40:02.887Z,17.73
2022-10-12T05:42:26.206Z,17.38
2022-10-12T05:44:48.996Z,19.17
2022-10-12T05:47:11.831Z,18.05
2022-10-12T05:49:36.027Z,18.52
2022-10-12T05:51:59.325Z,17.10
2022-10-12T05:54:22.363Z,17.45
2022-10-12T05:56:45.312Z,17.13
2022-10-12T05:59:11.044Z,17.05
2022-10-12T06:01:34.528Z,16.85
2022-10-12T06:03:57.920Z,17.10
2022-10-12T06:06:21.779Z,17.75
2022-10-12T06:08:44.628Z,17.52
2022-10-12T06:11:07.666Z,17.30
2022-10-12T06:13:30.707Z,17.55
2022-10-12T06:15:53.857Z,16.75
2022-10-12T06:18:18.300Z,16.80
2022-10-12T06:20:41.500Z,16.02
2022-10-12T06:23:04.732Z,16.20
2022-10-12T06:25:27.323Z,16.27
2022-10-12T06:27:49.986Z,16.75
2022-10-12T06:30:13.946Z,16.42
2022-10-12T06:32:36.942Z,15.27
2022-10-12T06:34:59.926Z,16.33
2022-10-12T06:37:47.956Z,15.73
2022-10-12T06:40:05.837Z,15.68
2022-10-12T06:42:28.409Z,15.15
2022-10-12T06:44:51.181Z,16.20
2022-10-12T06:47:13.805Z,15.57
2022-10-12T06:49:36.462Z,14.35
2022-10-12T06:51:59.022Z,14.02
2022-10-12T06:54:21.964Z,14.95
2022-10-12T06:56:44.887Z,14.27
2022-10-12T06:59:07.621Z,15.38
2022-10-12T07:01:30.523Z,15.07
2022-10-12T07:03:56.019Z,14.02
2022-10-12T07:06:22.518Z,13.82
2022-10-12T07:08:45.370Z,13.50
2022-10-12T07:11:10.381Z,13.85
2022-10-12T07:13:33.855Z,13.07
2022-10-12T07:15:56.463Z,13.75
2022-10-12T07:18:19.295Z,13.93
2022-10-12T07:20:42.457Z,13.15
2022-10-12T07:23:05.145Z,13.38
2022-10-12T07:25:27.797Z,13.93
2022-10-12T07:27:50.617Z,13.20
2022-10-12T07:30:13.669Z,13.13
2022-10-12T07:32:36.372Z,13.38
2022-10-12T07:34:59.158Z,13.18
2022-10-12T07:37:22.192Z,12.77
2022-10-12T07:39:45.595Z,14.40
2022-10-12T07:42:08.550Z,13.20
2022-10-12T07:44:31.718Z,13.52
2022-10-12T07:46:54.566Z,13.32
2022-10-12T07:49:17.424Z,13.65
2022-10-12T07:51:40.928Z,14.35
2022-10-12T07:54:03.755Z,13.38
2022-10-12T07:56:26.957Z,13.10
2022-10-12T07:58:51.646Z,13.27
2022-10-12T08:01:14.546Z,12.70
2022-10-12T08:03:37.259Z,12.93
2022-10-12T08:06:00.420Z,12.13
2022-10-12T08:08:22.970Z,12.27
2022-10-12T08:10:45.687Z,11.95
2022-10-12T08:13:08.201Z,11.43
2022-10-12T08:15:30.888Z,12.18
2022-10-12T08:17:53.738Z,12.25
2022-10-12T08:20:16.594Z,11.85
2022-10-12T08:22:39.227Z,11.63
2022-10-12T08:25:01.828Z,11.52
2022-10-12T08:27:24.484Z,11.32
2022-10-12T08:29:47.317Z,10.90
2022-10-12T08:32:11.075Z,10.45
2022-10-12T08:34:33.834Z,9.90
2022-10-12T08:36:56.587Z,9.75
2022-10-12T08:39:21.272Z,10.18
2022-10-12T08:42:06.872Z,9.82
2022-10-12T08:44:52.498Z,9.77
2022-10-12T08:47:17.821Z,9.70
2022-10-12T08:49:44.151Z,10.07
2022-10-12T08:52:26.999Z,10.18
2022-10-12T08:54:49.861Z,9.88
2022-10-12T08:57:19.653Z,9.20
2022-10-12T08:59:42.754Z,9.70
2022-10-12T09:02:40.770Z,10.00
2022-10-12T09:05:08.728Z,10.65
2022-10-12T09:07:46.220Z,9.60
2022-10-12T09:10:43.900Z,8.70
2022-10-12T09:14:01.029Z,9.63
2022-10-12T09:16:30.969Z,9.40
2022-10-12T09:18:57.924Z,9.75
2022-10-12T09:21:24.958Z,9.38
2022-10-12T09:23:48.868Z,9.45
2022-10-12T09:26:19.243Z,9.25
2022-10-12T09:29:24.346Z,8.90
2022-10-12T09:31:57.145Z,9.00
2022-10-12T09:34:20.067Z,8.88
2022-10-12T09:36:42.959Z,8.50
2022-10-12T09:39:13.079Z,8.68
2022-10-12T09:41:41.245Z,9.05
2022-10-12T09:44:06.415Z,8.18
2022-10-12T09:46:42.703Z,8.00
2022-10-12T09:49:05.692Z,8.25
2022-10-12T09:51:30.611Z,8.10
2022-10-12T09:53:57.692Z,8.05
2022-10-12T09:56:27.196Z,8.23
2022-10-12T09:58:53.418Z,7.35
2022-10-12T10:01:23.338Z,7.63
2022-10-12T10:03:48.303Z,7.07
2022-10-12T10:06:10.858Z,7.65
2022-10-12T10:08:44.746Z,7.10
2022-10-12T10:11:31.627Z,7.22
2022-10-12T10:13:55.703Z,6.85
2022-10-12T10:16:19.569Z,7.13
2022-10-12T10:18:55.308Z,6.95
2022-10-12T10:21:25.740Z,6.95
2022-10-12T10:24:00.555Z,7.00
2022-10-12T10:26:24.535Z,6.95
2022-10-12T10:28:50.077Z,6.55
2022-10-12T10:31:21.938Z,7.13
2022-10-12T10:33:44.659Z,7.05
2022-10-12T10:36:22.386Z,6.90
2022-10-12T10:38:59.175Z,6.90
2022-10-12T10:41:27.672Z,6.65
2022-10-12T10:43:51.311Z,6.63
2022-10-12T10:46:16.511Z,6.57
2022-10-12T10:49:02.141Z,6.10
2022-10-12T10:51:44.923Z,7.13
2022-10-12T10:54:33.662Z,6.75
2022-10-12T10:57:09.862Z,7.80
2022-10-12T10:59:41.382Z,8.02
2022-10-12T11:02:38.478Z,6.60
2022-10-12T11:05:07.216Z,6.50
2022-10-12T11:07:50.018Z,6.38
2022-10-12T11:10:22.820Z,6.82
2022-10-12T11:12:50.390Z,7.53
2022-10-12T11:15:20.832Z,6.55
2022-10-12T11:17:47.396Z,6.90
2022-10-12T11:20:31.979Z,7.13
2022-10-12T11:22:59.045Z,6.85
2022-10-12T11:25:43.495Z,6.53
2022-10-12T11:28:14.417Z,6.45
2022-10-12T11:30:43.678Z,6.82
2022-10-12T11:33:13.152Z,6.53
2022-10-12T11:35:38.318Z,6.75
2022-10-12T11:38:06.141Z,7.28
2022-10-12T11:41:00.183Z,6.90
2022-10-12T11:43:21.377Z,6.63
2022-10-12T11:45:49.635Z,6.68
2022-10-12T11:48:18.219Z,7.10
2022-10-12T11:50:46.841Z,6.90
2022-10-12T11:53:48.601Z,7.13
2022-10-12T11:56:31.463Z,6.60
2022-10-12T11:59:03.051Z,7.45
2022-10-12T12:01:33.744Z,7.10
2022-10-12T12:04:39.927Z,7.13
2022-10-12T12:07:26.663Z,7.25
2022-10-12T12:09:50.936Z,7.97
2022-10-12T12:12:26.863Z,6.65
2022-10-12T12:14:55.233Z,7.20
2022-10-12T12:17:20.431Z,6.85
2022-10-12T12:19:44.528Z,6.88
2022-10-12T12:22:10.003Z,7.03
2022-10-12T12:24:32.651Z,7.30
2022-10-12T12:26:55.230Z,7.38
2022-10-12T12:29:26.664Z,6.85
2022-10-12T12:31:59.165Z,7.80
2022-10-12T12:34:22.918Z,7.07
2022-10-12T12:36:47.779Z,7.78
2022-10-12T12:39:31.863Z,7.65
2022-10-12T12:42:01.630Z,7.47
2022-10-12T12:44:34.211Z,7.43
2022-10-12T12:46:57.075Z,7.30
2022-10-12T12:49:38.131Z,7.40
2022-10-12T12:52:01.099Z,7.47
2022-10-12T12:54:24.055Z,7.80
2022-10-12T12:57:17.141Z,7.28
2022-10-12T13:00:04.562Z,7.00
2022-10-12T13:03:01.892Z,6.78
2022-10-12T13:05:40.242Z,7.30
2022-10-12T13:08:26.881Z,7.30
2022-10-12T13:11:04.703Z,7.25
2022-10-12T13:13:42.462Z,7.15
2022-10-12T13:16:07.705Z,7.07
2022-10-12T13:18:51.376Z,7.20
2022-10-12T13:21:20.977Z,7.55
2022-10-12T13:23:46.965Z,7.10
2022-10-12T13:26:12.001Z,7.20
2022-10-12T13:28:40.217Z,7.13
2022-10-12T13:31:09.124Z,7.70
2022-10-12T13:33:38.459Z,7.38
2022-10-12T13:36:23.717Z,7.07
2022-10-12T13:38:46.339Z,7.60
2022-10-12T13:41:13.876Z,7.38
2022-10-12T13:43:44.056Z,7.80
2022-10-12T13:46:06.998Z,7.38
2022-10-12T13:48:57.720Z,7.93
2022-10-12T13:51:25.658Z,7.72
2022-10-12T13:53:48.362Z,8.00
2022-10-12T13:56:17.374Z,7.13
2022-10-12T13:58:41.103Z,7.70
2022-10-12T14:01:04.990Z,7.90
2022-10-12T14:03:36.270Z,7.78
2022-10-12T14:06:03.457Z,7.45
2022-10-12T14:08:28.046Z,7.78
2022-10-12T14:11:00.462Z,7.63
2022-10-12T14:13:33.153Z,7.40
2022-10-12T14:15:56.408Z,7.53
2022-10-12T14:18:39.210Z,7.80
2022-10-12T14:21:33.235Z,7.28
2022-10-12T14:24:08.170Z,7.55
2022-10-12T14:26:39.822Z,7.47
2022-10-12T14:29:31.555Z,7.72
2022-10-12T14:31:57.020Z,7.20
2022-10-12T14:34:39.795Z,7.55
2022-10-12T14:37:09.990Z,7.97
2022-10-12T14:39:33.406Z,7.38
2022-10-12T14:41:57.315Z,7.53
2022-10-12T14:44:22.614Z,7.20
2022-10-12T14:47:02.903Z,7.55
2022-10-12T14:49:32.532Z,8.02
2022-10-12T14:51:55.571Z,7.30
2022-10-12T14:54:18.141Z,7.50
2022-10-12T14:56:40.684Z,7.45
2022-10-12T14:59:03.496Z,8.32
2022-10-12T15:01:26.245Z,7.95
2022-10-12T15:03:49.154Z,7.55
2022-10-12T15:06:16.399Z,7.50
2022-10-12T15:08:39.183Z,7.80
2022-10-12T15:11:01.641Z,7.53
2022-10-12T15:13:24.107Z,7.82
2022-10-12T15:15:48.412Z,8.63
2022-10-12T15:18:11.306Z,8.23
2022-10-12T15:20:34.654Z,7.55
2022-10-12T15:22:58.236Z,8.55
2022-10-12T15:25:25.024Z,7.80
2022-10-12T15:27:47.741Z,8.05
2022-10-12T15:30:11.109Z,7.78
2022-10-12T15:32:33.724Z,8.05
2022-10-12T15:34:56.254Z,8.02
2022-10-12T15:37:18.846Z,8.02
2022-10-12T15:39:42.834Z,8.02
2022-10-12T15:42:05.467Z,8.35
2022-10-12T15:44:28.341Z,8.05
2022-10-12T15:46:54.535Z,8.18
2022-10-12T15:49:19.689Z,8.68
2022-10-12T15:51:47.780Z,8.60
2022-10-12T15:54:10.922Z,8.25
2022-10-12T15:56:33.512Z,7.97
2022-10-12T15:58:56.083Z,8.75
2022-10-12T16:01:20.358Z,8.10
2022-10-12T16:03:43.134Z,8.05
2022-10-12T16:06:06.388Z,8.48
2022-10-12T16:08:28.942Z,8.60
2022-10-12T16:10:51.770Z,8.45
2022-10-12T16:13:14.785Z,8.93
2022-10-12T16:15:37.487Z,8.90
2022-10-12T16:18:01.438Z,8.98
2022-10-12T16:20:24.771Z,9.02
2022-10-12T16:22:47.936Z,8.73
2022-10-12T16:25:13.049Z,9.60
2022-10-12T16:27:36.075Z,9.30
2022-10-12T16:29:59.281Z,9.02
2022-10-12T16:32:21.866Z,9.52
2022-10-12T16:34:44.554Z,9.50
2022-10-12T16:37:07.156Z,9.73
2022-10-12T16:39:29.736Z,10.38
2022-10-12T16:41:52.503Z,10.80
2022-10-12T16:44:15.168Z,10.65
2022-10-12T16:46:37.873Z,10.90
2022-10-12T16:49:00.515Z,10.95
2022-10-12T16:51:23.036Z,11.65
2022-10-12T16:53:45.892Z,11.80
2022-10-12T16:56:08.492Z,13.00
2022-10-12T16:58:31.215Z,13.23
2022-10-12T17:00:53.819Z,13.13
2022-10-12T17:03:16.537Z,13.68
2022-10-12T17:05:39.099Z,13.70
2022-10-12T17:08:02.762Z,13.75
2022-10-12T17:10:25.326Z,15.52
2022-10-12T17:12:47.989Z,20.88
2022-10-12T17:15:10.701Z,22.13
2022-10-12T17:17:33.289Z,22.50
2022-10-12T17:19:56.037Z,18.30
2022-10-12T17:22:18.966Z,19.25
2022-10-12T17:24:42.807Z,17.38
2022-10-12T17:27:07.500Z,17.20
2022-10-12T17:29:31.739Z,17.80
2022-10-12T17:31:55.115Z,19.45
2022-10-12T17:34:22.585Z,19.13
2022-10-12T17:36:46.152Z,20.05
2022-10-12T17:39:08.647Z,19.40
2022-10-12T17:41:31.230Z,19.67
2022-10-12T17:43:53.731Z,19.05
2022-10-12T17:46:21.501Z,17.40
2022-10-12T17:48:45.303Z,18.20
2022-10-12T17:51:10.075Z,18.42
2022-10-12T17:53:32.693Z,17.65
2022-10-12T17:56:00.381Z,17.83
2022-10-12T17:58:22.970Z,17.08
2022-10-12T18:00:45.579Z,18.02
2022-10-12T18:03:08.154Z,17.05
2022-10-12T18:05:30.663Z,16.98
2022-10-12T18:08:13.521Z,17.33
2022-10-12T18:10:40.819Z,16.65
2022-10-12T18:13:03.331Z,16.73
2022-10-12T18:15:25.995Z,16.95
2022-10-12T18:17:50.027Z,17.30
2022-10-12T18:20:13.068Z,17.08
2022-10-12T18:22:35.777Z,16.75
2022-10-12T18:24:59.734Z,16.30
2022-10-12T18:27:22.258Z,16.60
2022-10-12T18:29:45.055Z,17.33
2022-10-12T18:32:08.254Z,17.05
2022-10-12T18:34:35.658Z,16.40
2022-10-12T18:36:59.155Z,16.27
2022-10-12T18:39:21.923Z,16.05
2022-10-12T18:41:44.557Z,16.85
2022-10-12T18:44:07.393Z,16.45
2022-10-12T18:46:32.435Z,16.70
2022-10-12T18:48:55.996Z,16.58
2022-10-12T18:51:30.492Z,15.98
2022-10-12T18:53:53.073Z,17.10
2022-10-12T18:56:16.957Z,17.45
2022-10-12T18:58:39.829Z,17.08
2022-10-12T19:01:02.399Z,18.42
2022-10-12T19:03:25.814Z,17.52
2022-10-12T19:05:48.299Z,17.35
2022-10-12T19:08:11.007Z,17.90
2022-10-12T19:10:33.654Z,18.88
2022-10-12T19:12:56.239Z,19.05
2022-10-12T19:15:18.798Z,19.52
2022-10-12T19:17:41.454Z,17.90
2022-10-12T19:20:04.428Z,18.55
2022-10-12T19:22:29.481Z,17.77
2022-10-12T19:24:53.639Z,18.23
2022-10-12T19:27:16.406Z,19.45
2022-10-12T19:29:42.377Z,18.98
2022-10-12T19:32:08.174Z,18.83
2022-10-12T19:34:30.879Z,19.75
2022-10-12T19:36:53.726Z,20.42
2022-10-12T19:39:22.362Z,20.42
2022-10-12T19:41:45.924Z,19.67
2022-10-12T19:44:09.848Z,20.27
2022-10-12T19:46:32.756Z,21.40
2022-10-12T19:48:56.972Z,21.65
2022-10-12T19:51:21.355Z,20.88
2022-10-12T19:53:44.185Z,20.33
2022-10-12T19:56:14.161Z,21.27
2022-10-12T19:58:38.050Z,20.98
2022-10-12T20:01:09.311Z,22.42
2022-10-12T20:03:32.396Z,20.85
2022-10-12T20:05:55.087Z,22.13
2022-10-12T20:08:18.341Z,21.77
2022-10-12T20:11:01.379Z,19.98
2022-10-12T20:13:23.890Z,20.83
2022-10-12T20:15:46.402Z,19.95
2022-10-12T20:18:09.132Z,19.52
2022-10-12T20:20:31.710Z,18.58
2022-10-12T20:22:54.338Z,19.63
2022-10-12T20:25:16.975Z,19.05
2022-10-12T20:27:39.668Z,19.95
2022-10-12T20:30:02.219Z,20.95
2022-10-12T20:32:24.979Z,18.75
2022-10-12T20:34:52.216Z,18.80
2022-10-12T20:37:16.880Z,19.17
2022-10-12T20:39:39.592Z,19.50
2022-10-12T20:42:02.241Z,18.67
2022-10-12T20:44:24.749Z,18.55
2022-10-12T20:46:50.791Z,18.77
2022-10-12T20:49:13.327Z,18.38
2022-10-12T20:51:36.925Z,18.20
2022-10-12T20:54:00.963Z,17.67
2022-10-12T20:56:23.529Z,18.35
2022-10-12T20:58:47.141Z,18.42
2022-10-12T21:01:12.854Z,19.15
2022-10-12T21:03:36.579Z,19.02
2022-10-12T21:06:07.435Z,19.23
2022-10-12T21:08:29.952Z,20.15
2022-10-12T21:10:52.570Z,20.25
2022-10-12T21:13:15.156Z,20.23
2022-10-12T21:15:37.619Z,19.13
2022-10-12T21:18:00.210Z,20.10
2022-10-12T21:20:22.733Z,19.45
2022-10-12T21:22:46.058Z,19.52
2022-10-12T21:25:08.805Z,20.30
2022-10-12T21:27:31.471Z,19.60
2022-10-12T21:29:54.038Z,21.50
2022-10-12T21:32:16.896Z,21.67
2022-10-12T21:34:39.507Z,23.08
2022-10-12T21:37:02.037Z,23.25
2022-10-12T21:39:24.915Z,24.08
2022-10-12T21:41:47.708Z,24.17
2022-10-12T21:44:11.192Z,22.50
2022-10-12T21:46:35.536Z,23.52
2022-10-12T21:48:58.936Z,23.77
2022-10-12T21:51:23.239Z,23.15
2022-10-12T21:53:45.672Z,23.67
2022-10-12T21:56:11.790Z,21.67
2022-10-12T21:58:34.634Z,22.00
2022-10-12T22:01:09.235Z,22.02
2022-10-12T22:03:31.858Z,22.40
2022-10-12T22:05:54.420Z,22.65
2022-10-12T22:08:16.962Z,22.42
2022-10-12T22:10:39.932Z,22.15
2022-10-12T22:13:02.889Z,21.30
2022-10-12T22:15:25.303Z,21.45
2022-10-12T22:17:47.923Z,21.50
2022-10-12T22:20:12.183Z,23.58
2022-10-12T22:22:40.297Z,24.65
2022-10-12T22:25:02.995Z,23.02
2022-10-12T22:27:27.416Z,23.33
2022-10-12T22:29:50.184Z,22.75
2022-10-12T22:32:12.794Z,23.92
2022-10-12T22:34:35.237Z,23.92
2022-10-12T22:36:57.807Z,24.10
2022-10-12T22:39:20.368Z,23.15
2022-10-12T22:41:43.523Z,22.98
2022-10-12T22:44:06.111Z,23.25
2022-10-12T22:46:28.588Z,23.05
2022-10-12T22:48:53.354Z,21.95
2022-10-12T22:51:20.425Z,23.42
2022-10-12T22:53:43.024Z,23.05
2022-10-12T22:56:13.729Z,23.25
2022-10-12T22:58:36.398Z,23.52
2022-10-12T23:01:02.108Z,23.15
2022-10-12T23:03:29.350Z,23.38
2022-10-12T23:05:52.058Z,21.60
2022-10-12T23:08:15.220Z,22.63
2022-10-12T23:10:38.008Z,21.67
2022-10-12T23:13:00.676Z,21.98
2022-10-12T23:15:23.215Z,21.65
2022-10-12T23:17:46.165Z,22.08
2022-10-12T23:20:09.702Z,22.10
2022-10-12T23:22:32.244Z,21.40
2022-10-12T23:24:54.717Z,21.67
2022-10-12T23:27:18.056Z,20.85
2022-10-12T23:29:40.747Z,21.75
2022-10-12T23:32:03.977Z,21.63
2022-10-12T23:34:26.754Z,21.83
2022-10-12T23:36:49.368Z,21.45
2022-10-12T23:39:13.251Z,21.27
2022-10-12T23:41:35.859Z,22.17
2022-10-12T23:43:58.651Z,21.48
2022-10-12T23:46:21.335Z,21.58
2022-10-12T23:48:43.922Z,21.85
2022-10-12T23:51:13.623Z,22.15
2022-10-12T23:53:37.562Z,21.75
2022-10-12T23:56:00.226Z,20.45
2022-10-12T23:58:22.979Z,20.55
